Dayville, Indiana
Current Conditions -  °F | °C
As of 7:25 AM on Sunday 23 Nov 2014 (Local Time) from KEVV Reporting Station
Overcast Overcast  
Wind Chill: 54°   Ceiling: 4700
Heat Index: 54°   Visibility: 10mi
Dew Point: 39°   Wind: 8mph
Humidity: 57%   Direction: 140°SE
Pressure: 29.87"   Gusts: NA
Location:  37.9629°N, 87.3632°W
Report Text: KEVV 231325Z 14007KT 10SM SCT029 SCT039 OVC047 12/04 A2987 RMK AO2 T01220039
Loading
Personal Weather Stations






























Interactive Weather Map New forecast layout! Learn more

10-Day Weather Forecast

Advertisements
Track Severe Weather on mobile